Airport ICAO


07:24 UTC

16°C

Clear skies


An affordable passengers' Moving Map for your aircraft. Made for the iPad and the iPhone
More information here

LFMN Cote D'Azur


Nice FRANCE   VFR CAVOK


METAR LFMN 200700Z 34012KT CAVOK 16/M00 Q1015 0h24min

TAF LFMN 200200Z 2003/2109 34010KT CAVOK BECMG 2008/2010 18010KT BECMG 2018/2020 34010KT BECMG 2107/2109 09010KT 5h24min





NOTAMS

OPEN